sensor_id;sensor_type;location;lat;lon;timestamp;P1;durP1;ratioP1;P2;durP2;ratioP2
22660;SDS011;11497;52.222;21.246;2022-12-07T00:01:38;54.97;;;26.92;;
22660;SDS011;11497;52.222;21.246;2022-12-07T00:04:08;55.00;;;27.67;;
22660;SDS011;11497;52.222;21.246;2022-12-07T00:06:40;49.40;;;26.48;;
22660;SDS011;11497;52.222;21.246;2022-12-07T00:09:10;50.58;;;26.30;;
22660;SDS011;11497;52.222;21.246;2022-12-07T00:11:41;52.05;;;27.35;;
22660;SDS011;11497;52.222;21.246;2022-12-07T00:14:11;57.75;;;27.52;;
22660;SDS011;11497;52.222;21.246;2022-12-07T00:16:41;58.15;;;28.52;;
22660;SDS011;11497;52.222;21.246;2022-12-07T00:19:11;53.03;;;26.88;;
22660;SDS011;11497;52.222;21.246;2022-12-07T00:21:40;54.20;;;27.02;;
22660;SDS011;11497;52.222;21.246;2022-12-07T00:24:09;54.85;;;27.88;;
22660;SDS011;11497;52.222;21.246;2022-12-07T00:26:39;57.33;;;27.90;;
22660;SDS011;11497;52.222;21.246;2022-12-07T00:29:14;53.60;;;28.05;;
22660;SDS011;11497;52.222;21.246;2022-12-07T00:31:45;47.10;;;25.67;;
22660;SDS011;11497;52.222;21.246;2022-12-07T00:34:15;57.75;;;28.05;;
22660;SDS011;11497;52.222;21.246;2022-12-07T00:36:45;54.83;;;28.05;;
22660;SDS011;11497;52.222;21.246;2022-12-07T00:39:14;57.53;;;26.98;;
22660;SDS011;11497;52.222;21.246;2022-12-07T00:41:41;46.88;;;25.60;;
22660;SDS011;11497;52.222;21.246;2022-12-07T00:44:09;48.35;;;26.33;;
22660;SDS011;11497;52.222;21.246;2022-12-07T00:46:37;49.75;;;25.48;;
22660;SDS011;11497;52.222;21.246;2022-12-07T00:49:06;56.35;;;26.77;;
22660;SDS011;11497;52.222;21.246;2022-12-07T00:51:34;50.42;;;27.63;;
22660;SDS011;11497;52.222;21.246;2022-12-07T00:54:02;52.22;;;26.92;;
22660;SDS011;11497;52.222;21.246;2022-12-07T00:56:29;49.95;;;24.65;;
22660;SDS011;11497;52.222;21.246;2022-12-07T00:59:01;55.47;;;26.65;;
22660;SDS011;11497;52.222;21.246;2022-12-07T01:01:31;47.10;;;24.80;;
22660;SDS011;11497;52.222;21.246;2022-12-07T01:04:01;52.45;;;25.83;;
22660;SDS011;11497;52.222;21.246;2022-12-07T01:06:29;49.35;;;25.92;;
22660;SDS011;11497;52.222;21.246;2022-12-07T01:08:58;50.85;;;26.08;;
22660;SDS011;11497;52.222;21.246;2022-12-07T01:11:28;52.70;;;26.27;;
22660;SDS011;11497;52.222;21.246;2022-12-07T01:13:57;53.15;;;26.17;;
22660;SDS011;11497;52.222;21.246;2022-12-07T01:16:28;51.45;;;25.92;;
22660;SDS011;11497;52.222;21.246;2022-12-07T01:18:57;55.30;;;26.75;;
22660;SDS011;11497;52.222;21.246;2022-12-07T01:21:27;51.65;;;25.45;;
22660;SDS011;11497;52.222;21.246;2022-12-07T01:23:59;53.97;;;25.90;;
22660;SDS011;11497;52.222;21.246;2022-12-07T01:26:27;47.22;;;24.77;;
22660;SDS011;11497;52.222;21.246;2022-12-07T01:28:55;52.33;;;26.13;;
22660;SDS011;11497;52.222;21.246;2022-12-07T01:31:25;47.92;;;24.52;;
22660;SDS011;11497;52.222;21.246;2022-12-07T01:33:55;48.58;;;24.30;;
22660;SDS011;11497;52.222;21.246;2022-12-07T01:38:56;51.10;;;26.35;;
22660;SDS011;11497;52.222;21.246;2022-12-07T01:41:28;45.33;;;24.50;;
22660;SDS011;11497;52.222;21.246;2022-12-07T01:44:09;51.05;;;26.65;;
22660;SDS011;11497;52.222;21.246;2022-12-07T01:51:58;48.33;;;25.17;;
22660;SDS011;11497;52.222;21.246;2022-12-07T01:54:31;53.08;;;27.02;;
22660;SDS011;11497;52.222;21.246;2022-12-07T01:57:01;52.40;;;27.17;;
22660;SDS011;11497;52.222;21.246;2022-12-07T01:59:31;59.08;;;28.73;;
22660;SDS011;11497;52.222;21.246;2022-12-07T02:01:59;50.90;;;25.83;;
22660;SDS011;11497;52.222;21.246;2022-12-07T02:04:32;51.05;;;26.75;;
22660;SDS011;11497;52.222;21.246;2022-12-07T02:07:00;53.10;;;27.70;;
22660;SDS011;11497;52.222;21.246;2022-12-07T02:09:30;54.13;;;27.08;;
22660;SDS011;11497;52.222;21.246;2022-12-07T02:11:57;57.13;;;28.08;;
22660;SDS011;11497;52.222;21.246;2022-12-07T02:14:25;53.42;;;28.65;;
22660;SDS011;11497;52.222;21.246;2022-12-07T02:16:57;54.63;;;28.60;;
22660;SDS011;11497;52.222;21.246;2022-12-07T02:31:29;53.63;;;28.05;;
22660;SDS011;11497;52.222;21.246;2022-12-07T02:34:04;55.50;;;28.33;;
22660;SDS011;11497;52.222;21.246;2022-12-07T02:36:46;55.08;;;26.52;;
22660;SDS011;11497;52.222;21.246;2022-12-07T02:39:23;50.90;;;26.77;;
22660;SDS011;11497;52.222;21.246;2022-12-07T02:42:12;48.05;;;24.85;;
22660;SDS011;11497;52.222;21.246;2022-12-07T02:44:45;47.85;;;24.25;;
22660;SDS011;11497;52.222;21.246;2022-12-07T02:47:14;46.35;;;22.80;;
22660;SDS011;11497;52.222;21.246;2022-12-07T02:49:46;41.03;;;23.42;;
22660;SDS011;11497;52.222;21.246;2022-12-07T02:52:16;41.58;;;21.02;;
22660;SDS011;11497;52.222;21.246;2022-12-07T02:54:43;40.60;;;20.95;;
22660;SDS011;11497;52.222;21.246;2022-12-07T02:57:22;36.45;;;19.67;;
22660;SDS011;11497;52.222;21.246;2022-12-07T03:00:21;33.67;;;19.25;;
22660;SDS011;11497;52.222;21.246;2022-12-07T03:03:00;34.03;;;17.92;;
22660;SDS011;11497;52.222;21.246;2022-12-07T03:08:31;31.92;;;16.67;;
22660;SDS011;11497;52.222;21.246;2022-12-07T03:11:16;29.05;;;16.20;;
22660;SDS011;11497;52.222;21.246;2022-12-07T03:14:02;28.77;;;16.73;;
22660;SDS011;11497;52.222;21.246;2022-12-07T03:16:47;25.25;;;14.35;;
22660;SDS011;11497;52.222;21.246;2022-12-07T03:19:40;25.55;;;14.60;;
22660;SDS011;11497;52.222;21.246;2022-12-07T03:22:11;24.17;;;14.40;;
22660;SDS011;11497;52.222;21.246;2022-12-07T03:27:09;22.30;;;13.35;;
22660;SDS011;11497;52.222;21.246;2022-12-07T03:29:44;20.85;;;12.48;;
22660;SDS011;11497;52.222;21.246;2022-12-07T03:32:37;22.67;;;13.65;;
22660;SDS011;11497;52.222;21.246;2022-12-07T03:35:20;24.02;;;15.15;;
22660;SDS011;11497;52.222;21.246;2022-12-07T03:43:25;28.75;;;16.73;;
22660;SDS011;11497;52.222;21.246;2022-12-07T03:46:00;25.15;;;15.07;;
22660;SDS011;11497;52.222;21.246;2022-12-07T03:48:41;23.23;;;14.57;;
22660;SDS011;11497;52.222;21.246;2022-12-07T03:51:20;27.10;;;14.63;;
22660;SDS011;11497;52.222;21.246;2022-12-07T03:54:01;23.33;;;13.93;;
22660;SDS011;11497;52.222;21.246;2022-12-07T03:56:40;23.00;;;13.52;;
22660;SDS011;11497;52.222;21.246;2022-12-07T03:59:09;25.52;;;14.77;;
22660;SDS011;11497;52.222;21.246;2022-12-07T04:01:43;24.95;;;15.25;;
22660;SDS011;11497;52.222;21.246;2022-12-07T04:04:17;23.25;;;14.02;;
22660;SDS011;11497;52.222;21.246;2022-12-07T04:06:45;21.58;;;13.10;;
22660;SDS011;11497;52.222;21.246;2022-12-07T04:09:13;21.83;;;13.38;;
22660;SDS011;11497;52.222;21.246;2022-12-07T04:11:41;21.67;;;12.27;;
22660;SDS011;11497;52.222;21.246;2022-12-07T04:14:09;19.08;;;11.55;;
22660;SDS011;11497;52.222;21.246;2022-12-07T04:16:50;16.95;;;10.68;;
22660;SDS011;11497;52.222;21.246;2022-12-07T04:19:20;16.15;;;10.43;;
22660;SDS011;11497;52.222;21.246;2022-12-07T04:21:49;15.70;;;10.60;;
22660;SDS011;11497;52.222;21.246;2022-12-07T04:24:17;16.77;;;10.23;;
22660;SDS011;11497;52.222;21.246;2022-12-07T04:26:46;15.27;;;9.88;;
22660;SDS011;11497;52.222;21.246;2022-12-07T04:29:15;14.85;;;9.07;;
22660;SDS011;11497;52.222;21.246;2022-12-07T04:31:43;15.75;;;9.48;;
22660;SDS011;11497;52.222;21.246;2022-12-07T04:34:12;11.77;;;8.93;;
22660;SDS011;11497;52.222;21.246;2022-12-07T04:36:40;12.05;;;8.43;;
22660;SDS011;11497;52.222;21.246;2022-12-07T04:39:13;14.15;;;8.52;;
22660;SDS011;11497;52.222;21.246;2022-12-07T04:41:52;12.48;;;7.90;;
22660;SDS011;11497;52.222;21.246;2022-12-07T04:44:20;12.43;;;8.35;;
22660;SDS011;11497;52.222;21.246;2022-12-07T04:46:49;12.80;;;8.27;;
22660;SDS011;11497;52.222;21.246;2022-12-07T04:49:18;13.43;;;8.05;;
22660;SDS011;11497;52.222;21.246;2022-12-07T04:51:46;13.10;;;7.88;;
22660;SDS011;11497;52.222;21.246;2022-12-07T04:54:14;12.27;;;7.60;;
22660;SDS011;11497;52.222;21.246;2022-12-07T04:56:43;11.05;;;7.57;;
22660;SDS011;11497;52.222;21.246;2022-12-07T04:59:11;13.23;;;7.75;;
22660;SDS011;11497;52.222;21.246;2022-12-07T05:01:40;13.48;;;8.23;;
22660;SDS011;11497;52.222;21.246;2022-12-07T05:04:08;10.75;;;7.22;;
22660;SDS011;11497;52.222;21.246;2022-12-07T05:06:36;12.57;;;7.90;;
22660;SDS011;11497;52.222;21.246;2022-12-07T05:09:04;11.82;;;7.82;;
22660;SDS011;11497;52.222;21.246;2022-12-07T05:11:32;11.82;;;7.47;;
22660;SDS011;11497;52.222;21.246;2022-12-07T05:16:44;12.25;;;7.97;;
22660;SDS011;11497;52.222;21.246;2022-12-07T05:19:14;12.13;;;7.90;;
22660;SDS011;11497;52.222;21.246;2022-12-07T05:21:43;12.18;;;7.43;;
22660;SDS011;11497;52.222;21.246;2022-12-07T05:24:12;12.30;;;7.50;;
22660;SDS011;11497;52.222;21.246;2022-12-07T05:26:41;11.50;;;7.70;;
22660;SDS011;11497;52.222;21.246;2022-12-07T05:29:10;11.43;;;7.68;;
22660;SDS011;11497;52.222;21.246;2022-12-07T05:31:41;11.20;;;7.60;;
22660;SDS011;11497;52.222;21.246;2022-12-07T05:34:09;13.05;;;8.40;;
22660;SDS011;11497;52.222;21.246;2022-12-07T05:36:37;12.82;;;8.02;;
22660;SDS011;11497;52.222;21.246;2022-12-07T05:39:05;11.60;;;7.55;;
22660;SDS011;11497;52.222;21.246;2022-12-07T05:41:34;14.00;;;8.27;;
22660;SDS011;11497;52.222;21.246;2022-12-07T05:44:20;13.15;;;7.93;;
22660;SDS011;11497;52.222;21.246;2022-12-07T05:46:48;12.02;;;8.15;;
22660;SDS011;11497;52.222;21.246;2022-12-07T05:49:15;12.05;;;8.00;;
22660;SDS011;11497;52.222;21.246;2022-12-07T05:51:43;12.85;;;8.18;;
22660;SDS011;11497;52.222;21.246;2022-12-07T05:54:11;11.75;;;7.57;;
22660;SDS011;11497;52.222;21.246;2022-12-07T05:56:39;11.38;;;7.97;;
22660;SDS011;11497;52.222;21.246;2022-12-07T05:59:07;13.48;;;7.88;;
22660;SDS011;11497;52.222;21.246;2022-12-07T06:01:56;11.18;;;7.93;;
22660;SDS011;11497;52.222;21.246;2022-12-07T06:04:32;13.20;;;7.88;;
22660;SDS011;11497;52.222;21.246;2022-12-07T06:07:02;13.95;;;8.13;;
22660;SDS011;11497;52.222;21.246;2022-12-07T06:09:30;14.88;;;9.15;;
22660;SDS011;11497;52.222;21.246;2022-12-07T06:11:59;14.32;;;8.68;;
22660;SDS011;11497;52.222;21.246;2022-12-07T06:14:45;14.65;;;9.13;;
22660;SDS011;11497;52.222;21.246;2022-12-07T06:17:13;16.67;;;9.52;;
22660;SDS011;11497;52.222;21.246;2022-12-07T06:19:41;16.25;;;9.15;;
22660;SDS011;11497;52.222;21.246;2022-12-07T06:22:10;14.18;;;9.23;;
22660;SDS011;11497;52.222;21.246;2022-12-07T06:24:38;14.57;;;9.30;;
22660;SDS011;11497;52.222;21.246;2022-12-07T06:27:07;15.82;;;9.65;;
22660;SDS011;11497;52.222;21.246;2022-12-07T06:29:36;17.92;;;10.02;;
22660;SDS011;11497;52.222;21.246;2022-12-07T06:32:04;17.52;;;9.43;;
22660;SDS011;11497;52.222;21.246;2022-12-07T06:34:31;18.17;;;10.48;;
22660;SDS011;11497;52.222;21.246;2022-12-07T06:36:59;17.48;;;10.13;;
22660;SDS011;11497;52.222;21.246;2022-12-07T06:39:27;18.63;;;10.60;;
22660;SDS011;11497;52.222;21.246;2022-12-07T06:41:56;17.38;;;10.20;;
22660;SDS011;11497;52.222;21.246;2022-12-07T06:44:24;17.70;;;10.00;;
22660;SDS011;11497;52.222;21.246;2022-12-07T06:46:52;15.63;;;10.07;;
22660;SDS011;11497;52.222;21.246;2022-12-07T06:49:40;16.73;;;10.55;;
22660;SDS011;11497;52.222;21.246;2022-12-07T06:52:08;17.42;;;10.90;;
22660;SDS011;11497;52.222;21.246;2022-12-07T06:54:36;18.35;;;10.98;;
22660;SDS011;11497;52.222;21.246;2022-12-07T06:57:03;17.65;;;10.00;;
22660;SDS011;11497;52.222;21.246;2022-12-07T06:59:31;17.83;;;10.77;;
22660;SDS011;11497;52.222;21.246;2022-12-07T07:01:59;17.83;;;10.55;;
22660;SDS011;11497;52.222;21.246;2022-12-07T07:04:27;20.38;;;11.20;;
22660;SDS011;11497;52.222;21.246;2022-12-07T07:06:55;18.30;;;10.68;;
22660;SDS011;11497;52.222;21.246;2022-12-07T07:09:26;20.73;;;10.73;;
22660;SDS011;11497;52.222;21.246;2022-12-07T07:11:53;16.10;;;9.85;;
22660;SDS011;11497;52.222;21.246;2022-12-07T07:14:21;18.92;;;9.88;;
22660;SDS011;11497;52.222;21.246;2022-12-07T07:16:49;19.80;;;10.43;;
22660;SDS011;11497;52.222;21.246;2022-12-07T07:19:16;21.10;;;10.18;;
22660;SDS011;11497;52.222;21.246;2022-12-07T07:21:44;15.52;;;9.85;;
22660;SDS011;11497;52.222;21.246;2022-12-07T07:24:12;16.52;;;9.63;;
22660;SDS011;11497;52.222;21.246;2022-12-07T07:26:40;17.65;;;10.32;;
22660;SDS011;11497;52.222;21.246;2022-12-07T07:29:07;16.45;;;10.10;;
22660;SDS011;11497;52.222;21.246;2022-12-07T07:31:35;21.10;;;10.48;;
22660;SDS011;11497;52.222;21.246;2022-12-07T07:34:03;15.95;;;9.88;;
22660;SDS011;11497;52.222;21.246;2022-12-07T07:36:32;18.40;;;10.70;;
22660;SDS011;11497;52.222;21.246;2022-12-07T07:39:00;19.90;;;10.13;;
22660;SDS011;11497;52.222;21.246;2022-12-07T07:41:27;17.33;;;10.05;;
22660;SDS011;11497;52.222;21.246;2022-12-07T07:43:55;18.33;;;10.45;;
22660;SDS011;11497;52.222;21.246;2022-12-07T07:46:23;19.23;;;10.68;;
22660;SDS011;11497;52.222;21.246;2022-12-07T07:48:51;15.02;;;9.95;;
22660;SDS011;11497;52.222;21.246;2022-12-07T07:51:19;18.60;;;9.55;;
22660;SDS011;11497;52.222;21.246;2022-12-07T07:53:47;19.85;;;10.57;;
22660;SDS011;11497;52.222;21.246;2022-12-07T07:56:14;16.95;;;10.88;;
22660;SDS011;11497;52.222;21.246;2022-12-07T07:58:42;18.25;;;10.32;;
22660;SDS011;11497;52.222;21.246;2022-12-07T08:01:10;16.05;;;9.98;;
22660;SDS011;11497;52.222;21.246;2022-12-07T08:03:40;18.70;;;11.18;;
22660;SDS011;11497;52.222;21.246;2022-12-07T08:06:07;18.95;;;10.60;;
22660;SDS011;11497;52.222;21.246;2022-12-07T08:08:35;17.50;;;9.77;;
22660;SDS011;11497;52.222;21.246;2022-12-07T08:11:06;21.70;;;11.13;;
22660;SDS011;11497;52.222;21.246;2022-12-07T08:13:35;19.23;;;10.65;;
22660;SDS011;11497;52.222;21.246;2022-12-07T08:16:07;20.92;;;10.68;;
22660;SDS011;11497;52.222;21.246;2022-12-07T08:18:36;18.40;;;10.80;;
22660;SDS011;11497;52.222;21.246;2022-12-07T08:21:06;20.42;;;10.98;;
22660;SDS011;11497;52.222;21.246;2022-12-07T08:23:35;19.13;;;10.55;;
22660;SDS011;11497;52.222;21.246;2022-12-07T08:26:07;18.63;;;10.73;;
22660;SDS011;11497;52.222;21.246;2022-12-07T08:28:40;21.75;;;11.63;;
22660;SDS011;11497;52.222;21.246;2022-12-07T08:31:11;18.30;;;10.35;;
22660;SDS011;11497;52.222;21.246;2022-12-07T08:33:41;20.05;;;11.45;;
22660;SDS011;11497;52.222;21.246;2022-12-07T08:36:11;20.98;;;11.75;;
22660;SDS011;11497;52.222;21.246;2022-12-07T08:38:40;17.63;;;11.95;;
22660;SDS011;11497;52.222;21.246;2022-12-07T08:41:28;20.63;;;12.18;;
22660;SDS011;11497;52.222;21.246;2022-12-07T08:43:57;23.17;;;12.93;;
22660;SDS011;11497;52.222;21.246;2022-12-07T08:46:26;21.35;;;12.57;;
22660;SDS011;11497;52.222;21.246;2022-12-07T08:49:13;25.55;;;13.90;;
22660;SDS011;11497;52.222;21.246;2022-12-07T08:51:44;24.92;;;13.02;;
22660;SDS011;11497;52.222;21.246;2022-12-07T08:54:14;37.58;;;17.15;;
22660;SDS011;11497;52.222;21.246;2022-12-07T08:56:44;27.33;;;14.02;;
22660;SDS011;11497;52.222;21.246;2022-12-07T08:59:14;25.70;;;13.90;;
22660;SDS011;11497;52.222;21.246;2022-12-07T09:01:44;27.40;;;14.90;;
22660;SDS011;11497;52.222;21.246;2022-12-07T09:04:12;28.48;;;15.35;;
22660;SDS011;11497;52.222;21.246;2022-12-07T09:06:40;28.67;;;14.63;;
22660;SDS011;11497;52.222;21.246;2022-12-07T09:09:09;28.77;;;15.15;;
22660;SDS011;11497;52.222;21.246;2022-12-07T09:11:38;33.03;;;16.90;;
22660;SDS011;11497;52.222;21.246;2022-12-07T09:14:06;29.23;;;15.88;;
22660;SDS011;11497;52.222;21.246;2022-12-07T09:16:33;33.22;;;17.35;;
22660;SDS011;11497;52.222;21.246;2022-12-07T09:19:01;35.70;;;17.25;;
22660;SDS011;11497;52.222;21.246;2022-12-07T09:21:30;33.13;;;17.20;;
22660;SDS011;11497;52.222;21.246;2022-12-07T09:23:58;36.85;;;18.42;;
22660;SDS011;11497;52.222;21.246;2022-12-07T09:26:26;33.85;;;17.48;;
22660;SDS011;11497;52.222;21.246;2022-12-07T09:28:53;32.65;;;17.83;;
22660;SDS011;11497;52.222;21.246;2022-12-07T09:31:21;31.48;;;17.50;;
22660;SDS011;11497;52.222;21.246;2022-12-07T09:33:58;35.42;;;18.83;;
22660;SDS011;11497;52.222;21.246;2022-12-07T09:36:27;35.97;;;17.55;;
22660;SDS011;11497;52.222;21.246;2022-12-07T09:38:55;33.35;;;17.35;;
22660;SDS011;11497;52.222;21.246;2022-12-07T09:41:24;32.42;;;17.10;;
22660;SDS011;11497;52.222;21.246;2022-12-07T09:43:56;28.38;;;15.90;;
22660;SDS011;11497;52.222;21.246;2022-12-07T09:46:46;30.75;;;16.00;;
22660;SDS011;11497;52.222;21.246;2022-12-07T09:49:16;33.08;;;16.80;;
22660;SDS011;11497;52.222;21.246;2022-12-07T09:51:46;28.52;;;15.52;;
22660;SDS011;11497;52.222;21.246;2022-12-07T09:54:15;31.08;;;15.45;;
22660;SDS011;11497;52.222;21.246;2022-12-07T09:56:43;26.60;;;14.88;;
22660;SDS011;11497;52.222;21.246;2022-12-07T09:59:13;30.25;;;15.77;;
22660;SDS011;11497;52.222;21.246;2022-12-07T10:01:46;28.67;;;15.45;;
22660;SDS011;11497;52.222;21.246;2022-12-07T10:04:22;28.75;;;15.02;;
22660;SDS011;11497;52.222;21.246;2022-12-07T10:06:52;27.35;;;14.70;;
22660;SDS011;11497;52.222;21.246;2022-12-07T10:09:21;30.40;;;15.35;;
22660;SDS011;11497;52.222;21.246;2022-12-07T10:14:34;32.70;;;16.25;;
22660;SDS011;11497;52.222;21.246;2022-12-07T10:20:21;30.45;;;16.90;;
22660;SDS011;11497;52.222;21.246;2022-12-07T10:25:32;26.88;;;14.30;;
22660;SDS011;11497;52.222;21.246;2022-12-07T10:28:08;28.25;;;15.02;;
22660;SDS011;11497;52.222;21.246;2022-12-07T10:30:46;31.40;;;14.63;;
22660;SDS011;11497;52.222;21.246;2022-12-07T10:33:35;28.80;;;14.52;;
22660;SDS011;11497;52.222;21.246;2022-12-07T10:36:24;25.47;;;13.60;;
22660;SDS011;11497;52.222;21.246;2022-12-07T10:39:03;29.15;;;14.45;;
22660;SDS011;11497;52.222;21.246;2022-12-07T10:41:57;27.63;;;13.43;;
22660;SDS011;11497;52.222;21.246;2022-12-07T10:44:28;29.38;;;14.32;;
22660;SDS011;11497;52.222;21.246;2022-12-07T11:03:44;26.77;;;13.98;;
22660;SDS011;11497;52.222;21.246;2022-12-07T11:08:57;29.38;;;13.98;;
22660;SDS011;11497;52.222;21.246;2022-12-07T11:15:21;24.88;;;13.15;;
22660;SDS011;11497;52.222;21.246;2022-12-07T11:18:01;22.33;;;12.65;;
22660;SDS011;11497;52.222;21.246;2022-12-07T11:35:52;23.25;;;12.45;;
22660;SDS011;11497;52.222;21.246;2022-12-07T11:38:55;24.55;;;13.75;;
22660;SDS011;11497;52.222;21.246;2022-12-07T11:41:34;26.58;;;13.40;;
22660;SDS011;11497;52.222;21.246;2022-12-07T11:44:06;21.50;;;12.55;;
22660;SDS011;11497;52.222;21.246;2022-12-07T11:47:05;23.85;;;13.77;;
22660;SDS011;11497;52.222;21.246;2022-12-07T11:49:45;22.52;;;13.77;;
22660;SDS011;11497;52.222;21.246;2022-12-07T11:57:53;22.48;;;13.35;;
22660;SDS011;11497;52.222;21.246;2022-12-07T12:00:31;24.20;;;13.05;;
22660;SDS011;11497;52.222;21.246;2022-12-07T12:03:05;24.02;;;13.85;;
22660;SDS011;11497;52.222;21.246;2022-12-07T12:05:42;24.67;;;13.50;;
22660;SDS011;11497;52.222;21.246;2022-12-07T12:08:14;22.45;;;12.35;;
22660;SDS011;11497;52.222;21.246;2022-12-07T12:31:15;19.52;;;12.02;;
22660;SDS011;11497;52.222;21.246;2022-12-07T12:33:47;20.08;;;12.00;;
22660;SDS011;11497;52.222;21.246;2022-12-07T12:54:27;22.63;;;13.00;;
22660;SDS011;11497;52.222;21.246;2022-12-07T12:59:39;22.20;;;13.63;;
22660;SDS011;11497;52.222;21.246;2022-12-07T13:02:24;20.88;;;11.85;;
22660;SDS011;11497;52.222;21.246;2022-12-07T13:04:58;23.85;;;13.02;;
22660;SDS011;11497;52.222;21.246;2022-12-07T13:15:41;21.55;;;12.75;;
22660;SDS011;11497;52.222;21.246;2022-12-07T13:21:02;20.85;;;12.48;;
22660;SDS011;11497;52.222;21.246;2022-12-07T13:29:13;20.98;;;11.95;;
22660;SDS011;11497;52.222;21.246;2022-12-07T13:31:47;20.20;;;12.35;;
22660;SDS011;11497;52.222;21.246;2022-12-07T13:39:53;20.35;;;13.00;;
22660;SDS011;11497;52.222;21.246;2022-12-07T13:42:38;21.08;;;12.43;;
22660;SDS011;11497;52.222;21.246;2022-12-07T13:45:26;19.92;;;12.23;;
22660;SDS011;11497;52.222;21.246;2022-12-07T13:53:28;19.58;;;11.85;;
22660;SDS011;11497;52.222;21.246;2022-12-07T13:56:00;19.23;;;12.05;;
22660;SDS011;11497;52.222;21.246;2022-12-07T13:58:29;20.10;;;12.25;;
22660;SDS011;11497;52.222;21.246;2022-12-07T14:00:59;20.67;;;12.30;;
22660;SDS011;11497;52.222;21.246;2022-12-07T14:03:29;22.08;;;12.80;;
22660;SDS011;11497;52.222;21.246;2022-12-07T14:06:04;21.30;;;12.07;;
22660;SDS011;11497;52.222;21.246;2022-12-07T14:08:42;21.75;;;12.75;;
22660;SDS011;11497;52.222;21.246;2022-12-07T14:11:15;17.92;;;11.25;;
22660;SDS011;11497;52.222;21.246;2022-12-07T14:14:20;19.85;;;12.18;;
22660;SDS011;11497;52.222;21.246;2022-12-07T14:16:42;21.95;;;12.18;;
22660;SDS011;11497;52.222;21.246;2022-12-07T14:27:32;20.08;;;12.55;;
22660;SDS011;11497;52.222;21.246;2022-12-07T14:30:01;21.70;;;12.35;;
22660;SDS011;11497;52.222;21.246;2022-12-07T14:32:31;18.75;;;11.80;;
22660;SDS011;11497;52.222;21.246;2022-12-07T14:35:11;18.65;;;11.52;;
22660;SDS011;11497;52.222;21.246;2022-12-07T14:37:40;18.60;;;12.13;;
22660;SDS011;11497;52.222;21.246;2022-12-07T14:40:12;18.85;;;11.75;;
22660;SDS011;11497;52.222;21.246;2022-12-07T14:42:41;21.90;;;13.15;;
22660;SDS011;11497;52.222;21.246;2022-12-07T14:45:13;19.17;;;12.20;;
22660;SDS011;11497;52.222;21.246;2022-12-07T14:47:44;19.98;;;12.77;;
22660;SDS011;11497;52.222;21.246;2022-12-07T14:50:33;21.65;;;13.40;;
22660;SDS011;11497;52.222;21.246;2022-12-07T14:53:29;23.70;;;13.13;;
22660;SDS011;11497;52.222;21.246;2022-12-07T14:56:03;23.02;;;13.48;;
22660;SDS011;11497;52.222;21.246;2022-12-07T14:58:35;21.98;;;13.55;;
22660;SDS011;11497;52.222;21.246;2022-12-07T15:01:02;25.55;;;14.88;;
22660;SDS011;11497;52.222;21.246;2022-12-07T15:03:31;21.80;;;13.88;;
22660;SDS011;11497;52.222;21.246;2022-12-07T15:06:01;25.35;;;14.30;;
22660;SDS011;11497;52.222;21.246;2022-12-07T15:08:30;23.40;;;14.02;;
22660;SDS011;11497;52.222;21.246;2022-12-07T15:10:57;24.20;;;14.43;;
22660;SDS011;11497;52.222;21.246;2022-12-07T15:13:25;23.50;;;14.48;;
22660;SDS011;11497;52.222;21.246;2022-12-07T15:16:13;23.20;;;14.55;;
22660;SDS011;11497;52.222;21.246;2022-12-07T15:21:33;24.15;;;14.40;;
22660;SDS011;11497;52.222;21.246;2022-12-07T15:24:01;22.65;;;14.30;;
22660;SDS011;11497;52.222;21.246;2022-12-07T15:26:29;23.95;;;15.38;;
22660;SDS011;11497;52.222;21.246;2022-12-07T15:28:58;22.50;;;14.55;;
22660;SDS011;11497;52.222;21.246;2022-12-07T15:31:25;26.52;;;15.00;;
22660;SDS011;11497;52.222;21.246;2022-12-07T15:34:13;25.55;;;16.08;;
22660;SDS011;11497;52.222;21.246;2022-12-07T15:36:41;27.13;;;15.20;;
22660;SDS011;11497;52.222;21.246;2022-12-07T15:39:09;27.35;;;15.77;;
22660;SDS011;11497;52.222;21.246;2022-12-07T15:41:40;27.65;;;16.27;;
22660;SDS011;11497;52.222;21.246;2022-12-07T15:44:11;27.95;;;16.35;;
22660;SDS011;11497;52.222;21.246;2022-12-07T15:46:59;27.77;;;16.02;;
22660;SDS011;11497;52.222;21.246;2022-12-07T15:49:27;30.65;;;17.38;;
22660;SDS011;11497;52.222;21.246;2022-12-07T15:51:55;33.47;;;18.10;;
22660;SDS011;11497;52.222;21.246;2022-12-07T15:54:24;29.60;;;17.30;;
22660;SDS011;11497;52.222;21.246;2022-12-07T15:56:54;30.13;;;16.15;;
22660;SDS011;11497;52.222;21.246;2022-12-07T15:59:23;28.83;;;17.67;;
22660;SDS011;11497;52.222;21.246;2022-12-07T16:01:52;31.45;;;17.10;;
22660;SDS011;11497;52.222;21.246;2022-12-07T16:04:20;30.15;;;16.08;;
22660;SDS011;11497;52.222;21.246;2022-12-07T16:06:48;31.25;;;17.83;;
22660;SDS011;11497;52.222;21.246;2022-12-07T16:09:18;29.10;;;16.85;;
22660;SDS011;11497;52.222;21.246;2022-12-07T16:11:46;27.85;;;16.08;;
22660;SDS011;11497;52.222;21.246;2022-12-07T16:14:14;30.95;;;16.60;;
22660;SDS011;11497;52.222;21.246;2022-12-07T16:16:42;30.77;;;17.67;;
22660;SDS011;11497;52.222;21.246;2022-12-07T16:19:10;29.38;;;16.05;;
22660;SDS011;11497;52.222;21.246;2022-12-07T16:21:38;30.20;;;15.85;;
22660;SDS011;11497;52.222;21.246;2022-12-07T16:24:07;27.15;;;15.45;;
22660;SDS011;11497;52.222;21.246;2022-12-07T16:26:36;29.15;;;16.92;;
22660;SDS011;11497;52.222;21.246;2022-12-07T16:29:04;31.17;;;17.55;;
22660;SDS011;11497;52.222;21.246;2022-12-07T16:31:32;30.85;;;17.30;;
22660;SDS011;11497;52.222;21.246;2022-12-07T16:34:00;28.23;;;16.10;;
22660;SDS011;11497;52.222;21.246;2022-12-07T16:36:28;28.63;;;16.48;;
22660;SDS011;11497;52.222;21.246;2022-12-07T16:39:16;27.77;;;16.30;;
22660;SDS011;11497;52.222;21.246;2022-12-07T16:41:44;28.35;;;16.38;;
22660;SDS011;11497;52.222;21.246;2022-12-07T16:44:12;28.92;;;14.85;;
22660;SDS011;11497;52.222;21.246;2022-12-07T16:46:40;28.27;;;16.17;;
22660;SDS011;11497;52.222;21.246;2022-12-07T16:49:11;28.65;;;16.10;;
22660;SDS011;11497;52.222;21.246;2022-12-07T16:51:39;28.98;;;16.38;;
22660;SDS011;11497;52.222;21.246;2022-12-07T16:54:10;29.50;;;16.73;;
22660;SDS011;11497;52.222;21.246;2022-12-07T16:56:39;31.52;;;16.60;;
22660;SDS011;11497;52.222;21.246;2022-12-07T16:59:07;31.13;;;17.25;;
22660;SDS011;11497;52.222;21.246;2022-12-07T17:01:41;32.40;;;16.80;;
22660;SDS011;11497;52.222;21.246;2022-12-07T17:04:09;28.38;;;17.08;;
22660;SDS011;11497;52.222;21.246;2022-12-07T17:06:37;29.92;;;16.40;;
22660;SDS011;11497;52.222;21.246;2022-12-07T17:09:05;37.45;;;18.90;;
22660;SDS011;11497;52.222;21.246;2022-12-07T17:11:36;32.65;;;18.42;;
22660;SDS011;11497;52.222;21.246;2022-12-07T17:14:04;34.58;;;18.23;;
22660;SDS011;11497;52.222;21.246;2022-12-07T17:16:50;31.77;;;17.00;;
22660;SDS011;11497;52.222;21.246;2022-12-07T17:19:18;31.30;;;18.23;;
22660;SDS011;11497;52.222;21.246;2022-12-07T17:21:46;33.42;;;18.70;;
22660;SDS011;11497;52.222;21.246;2022-12-07T17:24:15;30.45;;;18.15;;